createdAt,value
2019-01-11T00:00:02.781Z,5.27
2019-01-11T00:02:33.329Z,4.83
2019-01-11T00:05:03.733Z,6.07
2019-01-11T00:07:34.418Z,7.43
2019-01-11T00:10:06.034Z,5.77
2019-01-11T00:12:36.482Z,7.17
2019-01-11T00:15:07.467Z,5.67
2019-01-11T00:17:38.227Z,6.87
2019-01-11T00:20:08.931Z,6.33
2019-01-11T00:22:39.342Z,7.83
2019-01-11T00:25:10.014Z,6.93
2019-01-11T00:27:40.417Z,6.17
2019-01-11T00:30:11.775Z,5.70
2019-01-11T00:32:42.146Z,5.80
2019-01-11T00:35:12.934Z,7.27
2019-01-11T00:37:43.750Z,8.73
2019-01-11T00:40:14.248Z,5.97
2019-01-11T00:42:44.678Z,4.83
2019-01-11T00:45:15.626Z,4.63
2019-01-11T00:47:46.305Z,5.43
2019-01-11T00:50:17.030Z,5.37
2019-01-11T00:52:47.824Z,5.43
2019-01-11T00:55:18.226Z,6.20
2019-01-11T00:57:48.569Z,6.23
2019-01-11T01:00:21.450Z,6.90
2019-01-11T01:02:52.135Z,5.07
2019-01-11T01:05:22.957Z,5.50
2019-01-11T01:07:53.503Z,6.50
2019-01-11T01:10:23.981Z,6.23
2019-01-11T01:12:54.453Z,5.90
2019-01-11T01:15:24.896Z,6.17
2019-01-11T01:17:55.563Z,8.43
2019-01-11T01:20:26.166Z,7.10
2019-01-11T01:22:57.030Z,8.27
2019-01-11T01:25:27.426Z,6.33
2019-01-11T01:27:57.890Z,7.23
2019-01-11T01:30:28.618Z,6.60
2019-01-11T01:32:58.999Z,8.77
2019-01-11T01:35:29.696Z,11.60
2019-01-11T01:38:00.491Z,7.93
2019-01-11T01:40:31.877Z,7.20
2019-01-11T01:43:02.194Z,8.47
2019-01-11T01:45:32.622Z,7.33
2019-01-11T01:48:03.235Z,7.90
2019-01-11T01:50:33.780Z,7.83
2019-01-11T01:53:04.237Z,8.47
2019-01-11T01:55:34.764Z,8.57
2019-01-11T01:58:05.168Z,7.47
2019-01-11T02:00:35.678Z,7.43
2019-01-11T02:03:06.085Z,6.63
2019-01-11T02:05:36.361Z,5.90
2019-01-11T02:08:06.770Z,8.50
2019-01-11T02:10:37.210Z,6.50
2019-01-11T02:13:08.184Z,6.33
2019-01-11T02:15:38.842Z,6.67
2019-01-11T02:18:09.182Z,6.23
2019-01-11T02:20:39.837Z,5.93
2019-01-11T02:23:10.383Z,4.20
2019-01-11T02:25:46.150Z,6.57
2019-01-11T02:28:13.030Z,5.70
2019-01-11T02:30:43.490Z,5.93
2019-01-11T02:33:13.740Z,6.10
2019-01-11T02:35:44.157Z,5.97
2019-01-11T02:38:14.533Z,5.40
2019-01-11T02:40:44.973Z,6.23
2019-01-11T02:43:15.272Z,7.33
2019-01-11T02:45:45.509Z,6.97
2019-01-11T02:48:15.965Z,8.03
2019-01-11T02:50:46.460Z,6.43
2019-01-11T02:53:17.048Z,5.33
2019-01-11T02:55:48.074Z,7.23
2019-01-11T02:58:18.403Z,6.23
2019-01-11T03:00:48.889Z,7.43
2019-01-11T03:03:19.231Z,7.93
2019-01-11T03:05:49.739Z,6.57
2019-01-11T03:08:20.475Z,6.50
2019-01-11T03:10:51.786Z,5.60
2019-01-11T03:13:22.276Z,5.87
2019-01-11T03:15:52.580Z,5.80
2019-01-11T03:18:23.741Z,5.73
2019-01-11T03:20:54.191Z,5.60
2019-01-11T03:23:24.723Z,5.60
2019-01-11T03:25:55.279Z,5.67
2019-01-11T03:28:26.053Z,6.07
2019-01-11T03:30:58.358Z,6.37
2019-01-11T03:33:28.895Z,6.63
2019-01-11T03:35:59.272Z,6.77
2019-01-11T03:38:29.719Z,7.03
2019-01-11T03:41:00.038Z,6.17
2019-01-11T03:43:30.698Z,7.17
2019-01-11T03:46:01.067Z,7.57
2019-01-11T03:48:31.412Z,6.07
2019-01-11T03:51:01.847Z,5.73
2019-01-11T03:53:32.310Z,5.87
2019-01-11T03:56:02.608Z,5.93
2019-01-11T03:58:33.355Z,6.47
2019-01-11T04:01:03.804Z,5.47
2019-01-11T04:03:34.264Z,6.30
2019-01-11T04:06:04.925Z,6.77
2019-01-11T04:08:36.076Z,6.80
2019-01-11T04:11:06.911Z,6.13
2019-01-11T04:13:37.364Z,6.13
2019-01-11T04:16:07.879Z,6.53
2019-01-11T04:18:57.151Z,6.13
2019-01-11T04:21:27.557Z,7.57
2019-01-11T04:23:58.088Z,6.13
2019-01-11T04:26:28.809Z,6.97
2019-01-11T04:28:59.366Z,9.07
2019-01-11T04:31:29.730Z,8.63
2019-01-11T04:34:00.206Z,7.43
2019-01-11T04:36:30.831Z,9.20
2019-01-11T04:39:01.235Z,7.63
2019-01-11T04:41:31.546Z,8.47
2019-01-11T04:44:01.863Z,9.43
2019-01-11T04:46:32.251Z,8.77
2019-01-11T04:49:02.927Z,8.53
2019-01-11T04:51:33.344Z,9.17
2019-01-11T04:54:03.773Z,9.30
2019-01-11T04:56:34.436Z,7.57
2019-01-11T04:59:04.931Z,10.27
2019-01-11T05:01:35.340Z,10.30
2019-01-11T05:04:05.761Z,9.20
2019-01-11T05:06:36.153Z,8.00
2019-01-11T05:09:08.387Z,8.10
2019-01-11T05:11:38.724Z,10.17
2019-01-11T05:14:09.162Z,10.07
2019-01-11T05:16:39.816Z,8.57
2019-01-11T05:19:10.515Z,9.67
2019-01-11T05:21:41.304Z,9.63
2019-01-11T05:24:11.709Z,8.83
2019-01-11T05:30:21.505Z,10.07
2019-01-11T05:32:51.982Z,8.07
2019-01-11T05:35:22.399Z,8.43
2019-01-11T05:37:52.924Z,10.13
2019-01-11T05:40:23.627Z,9.30
2019-01-11T05:42:54.324Z,8.70
2019-01-11T05:45:24.809Z,9.17
2019-01-11T05:47:55.109Z,10.80
2019-01-11T05:50:25.359Z,12.33
2019-01-11T05:52:55.808Z,10.20
2019-01-11T05:55:45.302Z,10.40
2019-01-11T05:58:44.022Z,9.47
2019-01-11T06:01:15.704Z,9.40
2019-01-11T06:03:46.388Z,11.87
2019-01-11T06:06:16.812Z,11.67
2019-01-11T06:08:47.263Z,13.43
2019-01-11T06:11:18.003Z,13.77
2019-01-11T06:13:48.316Z,12.87
2019-01-11T06:16:18.738Z,13.03
2019-01-11T06:18:49.417Z,10.43
2019-01-11T06:21:19.854Z,9.43
2019-01-11T06:23:50.568Z,11.57
2019-01-11T06:26:21.054Z,9.77
2019-01-11T06:28:51.509Z,10.43
2019-01-11T06:31:21.904Z,11.17
2019-01-11T06:33:52.185Z,9.33
2019-01-11T06:36:22.513Z,11.07
2019-01-11T06:38:52.890Z,9.20
2019-01-11T06:41:25.057Z,10.23
2019-01-11T06:43:55.414Z,9.80
2019-01-11T06:46:26.421Z,11.27
2019-01-11T06:48:57.045Z,10.43
2019-01-11T06:51:27.575Z,8.63
2019-01-11T06:53:58.228Z,12.87
2019-01-11T06:56:28.868Z,19.73
2019-01-11T06:58:59.640Z,11.43
2019-01-11T07:01:30.091Z,8.87
2019-01-11T07:04:00.517Z,9.80
2019-01-11T07:06:30.891Z,11.07
2019-01-11T07:09:01.068Z,9.10
2019-01-11T07:11:31.397Z,7.37
2019-01-11T07:14:01.791Z,11.97
2019-01-11T07:16:32.620Z,10.30
2019-01-11T07:19:03.098Z,12.30
2019-01-11T07:21:33.512Z,9.90
2019-01-11T07:24:04.786Z,8.00
2019-01-11T07:26:35.244Z,7.97
2019-01-11T07:29:05.995Z,11.77
2019-01-11T07:31:36.696Z,10.37
2019-01-11T07:34:07.217Z,8.37
2019-01-11T07:36:40.501Z,6.20
2019-01-11T07:39:22.216Z,9.50
2019-01-11T07:41:52.676Z,12.03
2019-01-11T07:44:23.338Z,7.60
2019-01-11T07:46:53.759Z,7.40
2019-01-11T07:49:24.692Z,9.70
2019-01-11T07:51:55.101Z,11.33
2019-01-11T07:54:25.480Z,8.60
2019-01-11T07:56:55.931Z,6.40
2019-01-11T07:59:26.565Z,7.33
2019-01-11T08:01:57.092Z,8.67
2019-01-11T08:04:27.402Z,9.10
2019-01-11T08:06:57.878Z,7.70
2019-01-11T08:09:28.288Z,8.00
2019-01-11T08:11:58.942Z,10.53
2019-01-11T08:14:29.363Z,8.37
2019-01-11T08:17:00.166Z,10.00
2019-01-11T08:19:30.614Z,10.37
2019-01-11T08:22:01.373Z,9.67
2019-01-11T08:24:31.853Z,8.33
2019-01-11T08:27:02.180Z,8.97
2019-01-11T08:29:32.551Z,10.40
2019-01-11T08:32:02.874Z,9.17
2019-01-11T08:34:33.310Z,10.47
2019-01-11T08:37:04.166Z,11.40
2019-01-11T08:39:34.524Z,12.83
2019-01-11T08:42:04.932Z,12.57
2019-01-11T08:44:36.530Z,11.57
2019-01-11T08:47:06.940Z,10.87
2019-01-11T08:49:37.286Z,11.03
2019-01-11T08:52:07.738Z,12.60
2019-01-11T08:54:38.536Z,11.57
2019-01-11T08:57:09.239Z,12.63
2019-01-11T08:59:39.767Z,11.03
2019-01-11T09:02:10.221Z,16.03
2019-01-11T09:04:40.658Z,10.80
2019-01-11T09:07:11.074Z,12.97
2019-01-11T09:09:41.882Z,10.97
2019-01-11T09:12:12.273Z,12.30
2019-01-11T09:14:48.105Z,10.73
2019-01-11T09:17:20.241Z,13.13
2019-01-11T09:19:50.665Z,15.43
2019-01-11T09:22:21.097Z,14.97
2019-01-11T09:24:51.535Z,13.17
2019-01-11T09:27:22.078Z,13.07
2019-01-11T09:29:52.498Z,14.63
2019-01-11T09:32:23.727Z,17.97
2019-01-11T09:34:54.148Z,15.50
2019-01-11T09:37:25.087Z,13.93
2019-01-11T09:39:55.626Z,14.97
2019-01-11T09:42:26.369Z,18.37
2019-01-11T09:44:56.624Z,14.70
2019-01-11T09:47:27.049Z,14.40
2019-01-11T09:49:57.538Z,14.80
2019-01-11T09:52:57.061Z,18.60
2019-01-11T09:55:27.336Z,16.90
2019-01-11T09:57:57.947Z,15.40
2019-01-11T10:00:28.801Z,15.77
2019-01-11T10:03:04.244Z,15.40
2019-01-11T10:05:34.675Z,13.50
2019-01-11T10:08:04.554Z,11.90
2019-01-11T10:10:34.934Z,16.37
2019-01-11T10:13:05.703Z,16.93
2019-01-11T10:15:36.258Z,18.63
2019-01-11T10:18:06.669Z,15.67
2019-01-11T10:20:36.431Z,15.73
2019-01-11T10:23:08.720Z,16.73
2019-01-11T10:25:39.214Z,16.93
2019-01-11T10:28:10.111Z,19.20
2019-01-11T10:30:40.838Z,15.23
2019-01-11T10:33:11.147Z,15.97
2019-01-11T10:35:41.825Z,17.37
2019-01-11T10:38:12.691Z,17.63
2019-01-11T10:40:43.157Z,17.97
2019-01-11T10:43:13.508Z,22.17
2019-01-11T10:45:43.940Z,20.87
2019-01-11T10:48:14.446Z,24.13
2019-01-11T10:50:44.880Z,21.33
2019-01-11T10:53:15.297Z,22.20
2019-01-11T10:55:45.565Z,21.03
2019-01-11T10:58:16.461Z,20.93
2019-01-11T11:00:46.873Z,21.83
2019-01-11T11:03:17.565Z,21.60
2019-01-11T11:05:47.799Z,27.73
2019-01-11T11:08:18.261Z,26.53
2019-01-11T11:10:49.015Z,25.83
2019-01-11T11:13:19.347Z,25.07
2019-01-11T11:15:49.711Z,24.73
2019-01-11T11:18:20.147Z,31.77
2019-01-11T11:20:51.319Z,28.80
2019-01-11T11:23:21.807Z,26.73
2019-01-11T11:25:52.248Z,23.63
2019-01-11T11:28:22.663Z,30.03
2019-01-11T11:30:53.204Z,30.23
2019-01-11T11:33:23.708Z,28.13
2019-01-11T11:35:53.595Z,27.60
2019-01-11T11:38:24.139Z,33.87
2019-01-11T11:40:55.069Z,34.33
2019-01-11T11:43:25.380Z,33.43
2019-01-11T11:45:55.854Z,36.13
2019-01-11T11:48:26.368Z,34.93
2019-01-11T11:50:56.866Z,29.57
2019-01-11T11:53:28.569Z,35.30
2019-01-11T11:55:59.259Z,39.67
2019-01-11T11:58:29.508Z,32.90
2019-01-11T12:00:59.901Z,33.80
2019-01-11T12:03:30.667Z,34.63
2019-01-11T12:06:01.008Z,36.67
2019-01-11T12:08:31.403Z,39.07
2019-01-11T12:11:02.076Z,36.63
2019-01-11T12:13:34.667Z,38.33
2019-01-11T12:16:04.721Z,33.63
2019-01-11T12:18:35.030Z,34.60
2019-01-11T12:21:05.482Z,34.90
2019-01-11T12:23:35.901Z,35.13
2019-01-11T12:26:06.597Z,34.50
2019-01-11T12:28:37.352Z,34.67
2019-01-11T12:31:07.707Z,26.57
2019-01-11T12:33:37.965Z,32.00
2019-01-11T12:36:09.343Z,34.97
2019-01-11T12:38:39.702Z,29.20
2019-01-11T12:41:10.532Z,30.27
2019-01-11T12:43:41.434Z,35.97
2019-01-11T12:46:11.712Z,30.83
2019-01-11T12:48:41.942Z,29.07
2019-01-11T12:51:12.281Z,30.97
2019-01-11T12:53:42.754Z,28.97
2019-01-11T12:56:13.089Z,28.90
2019-01-11T12:58:43.753Z,32.80
2019-01-11T13:01:14.134Z,32.33
2019-01-11T13:03:44.465Z,28.67
2019-01-11T13:06:15.300Z,33.23
2019-01-11T13:08:45.631Z,29.30
2019-01-11T13:11:16.397Z,32.30
2019-01-11T13:13:47.011Z,33.23
2019-01-11T13:16:17.288Z,30.53
2019-01-11T13:18:47.812Z,29.90
2019-01-11T13:21:18.459Z,28.80
2019-01-11T13:23:48.887Z,29.80
2019-01-11T13:26:19.538Z,30.53
2019-01-11T13:28:50.137Z,30.17
2019-01-11T13:31:20.558Z,25.33
2019-01-11T13:33:50.945Z,28.47
2019-01-11T13:36:23.061Z,30.73
2019-01-11T13:38:53.443Z,28.97
2019-01-11T13:41:23.813Z,31.03
2019-01-11T13:43:54.358Z,31.03
2019-01-11T13:46:24.766Z,29.27
2019-01-11T13:48:55.206Z,29.33
2019-01-11T13:51:25.966Z,29.87
2019-01-11T13:53:56.352Z,32.13
2019-01-11T13:56:26.685Z,34.93
2019-01-11T13:58:56.470Z,28.37
2019-01-11T14:01:26.908Z,33.20
2019-01-11T14:03:57.477Z,33.53
2019-01-11T14:06:27.958Z,31.17
2019-01-11T14:08:58.596Z,34.43
2019-01-11T14:11:29.290Z,31.57
2019-01-11T14:13:59.988Z,33.47
2019-01-11T14:16:30.428Z,28.93
2019-01-11T14:19:00.874Z,33.93
2019-01-11T14:21:31.147Z,30.70
2019-01-11T14:24:01.443Z,34.10
2019-01-11T14:26:32.020Z,33.90
2019-01-11T14:29:02.394Z,33.13
2019-01-11T14:31:32.764Z,34.80
2019-01-11T14:34:03.291Z,35.97
2019-01-11T14:36:34.124Z,31.57
2019-01-11T14:39:06.818Z,30.80
2019-01-11T14:41:37.815Z,30.30
2019-01-11T14:44:08.270Z,33.00
2019-01-11T14:46:38.776Z,29.53
2019-01-11T14:49:09.166Z,29.10
2019-01-11T14:51:39.540Z,25.53
2019-01-11T14:54:10.299Z,36.10
2019-01-11T14:56:41.048Z,31.73
2019-01-11T14:59:11.509Z,30.17
2019-01-11T15:01:41.883Z,26.50
2019-01-11T15:04:12.194Z,28.47
2019-01-11T15:06:42.980Z,27.17
2019-01-11T15:09:13.395Z,30.73
2019-01-11T15:11:43.750Z,24.87
2019-01-11T15:14:14.222Z,29.00
2019-01-11T15:16:44.683Z,26.93
2019-01-11T15:19:15.768Z,24.07
2019-01-11T15:21:46.229Z,27.43
2019-01-11T15:24:16.486Z,25.63
2019-01-11T15:26:46.927Z,25.57
2019-01-11T15:29:17.047Z,25.53
2019-01-11T15:31:47.357Z,27.10
2019-01-11T15:34:17.730Z,27.73
2019-01-11T15:36:47.961Z,24.13
2019-01-11T15:39:18.292Z,28.43
2019-01-11T15:41:48.738Z,27.17
2019-01-11T15:44:19.324Z,23.33
2019-01-11T15:46:49.981Z,28.53
2019-01-11T15:49:20.645Z,26.33
2019-01-11T15:51:51.413Z,21.87
2019-01-11T15:54:21.817Z,25.60
2019-01-11T15:56:52.191Z,25.03
2019-01-11T15:59:22.508Z,23.20
2019-01-11T16:01:56.222Z,22.63
2019-01-11T16:04:26.553Z,24.70
2019-01-11T16:06:57.105Z,22.57
2019-01-11T16:10:04.248Z,23.33
2019-01-11T16:13:05.141Z,23.93
2019-01-11T16:16:22.482Z,27.70
2019-01-11T16:18:55.382Z,20.47
2019-01-11T16:21:25.701Z,21.13
2019-01-11T16:23:56.069Z,20.47
2019-01-11T16:26:26.347Z,24.73
2019-01-11T16:28:56.700Z,23.93
2019-01-11T16:31:27.200Z,21.63
2019-01-11T16:33:57.521Z,22.30
2019-01-11T16:36:28.157Z,19.83
2019-01-11T16:38:59.294Z,23.20
2019-01-11T16:41:29.573Z,24.23
2019-01-11T16:43:59.885Z,23.87
2019-01-11T16:46:29.720Z,23.10
2019-01-11T16:49:00.237Z,25.33
2019-01-11T16:51:30.569Z,24.77
2019-01-11T16:54:01.305Z,22.87
2019-01-11T16:56:31.750Z,24.47
2019-01-11T16:59:02.118Z,20.03
2019-01-11T17:01:32.838Z,21.77
2019-01-11T17:04:03.254Z,23.97
2019-01-11T17:06:33.623Z,23.60
2019-01-11T17:09:05.364Z,21.33
2019-01-11T17:11:35.778Z,24.33
2019-01-11T17:14:06.747Z,20.90
2019-01-11T17:16:37.167Z,24.53
2019-01-11T17:19:07.891Z,20.37
2019-01-11T17:21:38.112Z,19.73
2019-01-11T17:24:08.768Z,22.40
2019-01-11T17:26:38.634Z,20.63
2019-01-11T17:29:09.477Z,24.50
2019-01-11T17:31:40.212Z,20.57
2019-01-11T17:34:10.695Z,22.90
2019-01-11T17:36:40.936Z,23.70
2019-01-11T17:39:11.585Z,23.53
2019-01-11T17:41:41.962Z,23.10
2019-01-11T17:44:12.234Z,24.43
2019-01-11T17:46:43.021Z,18.83
2019-01-11T17:49:13.434Z,22.80
2019-01-11T17:51:43.892Z,24.20
2019-01-11T17:54:13.954Z,20.57
2019-01-11T17:56:44.269Z,22.67
2019-01-11T17:59:14.559Z,20.53
2019-01-11T18:01:44.366Z,21.53
2019-01-11T18:04:14.298Z,21.77
2019-01-11T18:06:44.101Z,22.53
2019-01-11T18:09:14.465Z,19.53
2019-01-11T18:11:44.168Z,24.40
2019-01-11T18:14:14.568Z,23.13
2019-01-11T18:16:44.887Z,21.00
2019-01-11T18:19:15.202Z,22.20
2019-01-11T18:21:45.589Z,23.67
2019-01-11T18:24:15.874Z,21.63
2019-01-11T18:26:46.556Z,26.97
2019-01-11T18:29:16.473Z,21.20
2019-01-11T18:31:46.308Z,21.10
2019-01-11T18:34:17.476Z,23.50
2019-01-11T18:36:48.216Z,22.33
2019-01-11T18:39:18.595Z,22.93
2019-01-11T18:41:48.568Z,22.40
2019-01-11T18:44:18.426Z,21.27
2019-01-11T18:46:48.279Z,23.70
2019-01-11T18:49:18.214Z,17.90
2019-01-11T18:51:48.640Z,22.57
2019-01-11T18:54:19.021Z,22.90
2019-01-11T18:56:49.023Z,24.83
2019-01-11T18:59:19.424Z,23.93
2019-01-11T19:01:49.836Z,19.73
2019-01-11T19:04:20.228Z,21.43
2019-01-11T19:06:50.699Z,27.47
2019-01-11T19:09:21.137Z,26.07
2019-01-11T19:11:51.793Z,25.20
2019-01-11T19:14:21.616Z,20.33
2019-01-11T19:16:51.582Z,24.37
2019-01-11T19:19:22.116Z,22.93
2019-01-11T19:21:52.612Z,25.43
2019-01-11T19:24:22.962Z,24.90
2019-01-11T19:26:53.262Z,25.93
2019-01-11T19:29:24.084Z,23.97
2019-01-11T19:31:54.457Z,24.43
2019-01-11T19:34:24.882Z,25.87
2019-01-11T19:36:55.204Z,25.07
2019-01-11T19:39:26.260Z,24.73
2019-01-11T19:41:56.724Z,25.33
2019-01-11T19:44:27.013Z,31.10
2019-01-11T19:46:57.370Z,26.10
2019-01-11T19:49:27.691Z,24.00
2019-01-11T19:51:58.030Z,22.83
2019-01-11T19:54:27.779Z,23.70
2019-01-11T19:56:58.105Z,32.00
2019-01-11T19:59:28.469Z,28.60
2019-01-11T20:01:58.963Z,26.00
2019-01-11T20:04:29.243Z,26.60
2019-01-11T20:06:59.589Z,24.93
2019-01-11T20:09:29.957Z,29.43
2019-01-11T20:12:00.960Z,27.80
2019-01-11T20:14:31.461Z,29.63
2019-01-11T20:17:01.995Z,27.43
2019-01-11T20:19:32.388Z,28.07
2019-01-11T20:22:02.074Z,28.57
2019-01-11T20:24:34.166Z,30.03
2019-01-11T20:27:04.805Z,29.70
2019-01-11T20:29:35.714Z,28.07
2019-01-11T20:32:06.407Z,24.20
2019-01-11T20:34:36.722Z,25.83
2019-01-11T20:37:16.019Z,29.53
2019-01-11T20:39:46.374Z,26.53
2019-01-11T20:42:16.712Z,27.23
2019-01-11T20:44:47.039Z,26.50
2019-01-11T20:47:17.795Z,25.40
2019-01-11T20:49:47.549Z,25.40
2019-01-11T20:52:17.918Z,29.83
2019-01-11T20:54:48.790Z,29.93
2019-01-11T20:57:19.318Z,28.33
2019-01-11T20:59:49.996Z,27.13
2019-01-11T21:02:20.731Z,26.87
2019-01-11T21:04:50.884Z,34.70
2019-01-11T21:07:21.324Z,27.13
2019-01-11T21:09:51.622Z,28.10
2019-01-11T21:12:22.022Z,36.60
2019-01-11T21:14:52.362Z,31.73
2019-01-11T21:17:23.363Z,43.67
2019-01-11T21:19:53.786Z,30.87
2019-01-11T21:22:24.461Z,33.33
2019-01-11T21:25:00.077Z,28.77
2019-01-11T21:27:26.535Z,32.00
2019-01-11T21:29:56.862Z,30.23
2019-01-11T21:32:27.258Z,27.13
2019-01-11T21:34:57.651Z,32.53
2019-01-11T21:37:27.932Z,36.40
2019-01-11T21:39:58.249Z,29.77
2019-01-11T21:42:28.915Z,33.53
2019-01-11T21:44:59.263Z,33.30
2019-01-11T21:47:29.394Z,31.30
2019-01-11T21:49:59.822Z,33.17
2019-01-11T21:52:30.351Z,36.40
2019-01-11T21:55:00.741Z,30.57
2019-01-11T21:57:31.188Z,34.87
2019-01-11T22:00:01.764Z,36.33
2019-01-11T22:02:32.251Z,38.73
2019-01-11T22:05:02.499Z,25.33
2019-01-11T22:07:32.804Z,31.37
2019-01-11T22:10:03.566Z,34.40
2019-01-11T22:12:34.137Z,34.13
2019-01-11T22:15:05.141Z,29.20
2019-01-11T22:17:36.378Z,26.83
2019-01-11T22:20:09.653Z,31.17
2019-01-11T22:22:40.044Z,30.53
2019-01-11T22:25:12.310Z,31.60
2019-01-11T22:27:42.744Z,33.30
2019-01-11T22:30:19.532Z,33.27
2019-01-11T22:32:49.952Z,31.50
2019-01-11T22:35:20.476Z,30.80
2019-01-11T22:37:50.905Z,33.67
2019-01-11T22:40:23.652Z,35.40
2019-01-11T22:43:00.135Z,34.23
2019-01-11T22:45:30.750Z,33.87
2019-01-11T22:48:01.040Z,30.73
2019-01-11T22:50:31.574Z,34.00
2019-01-11T22:53:01.950Z,31.27
2019-01-11T22:55:32.385Z,34.00
2019-01-11T22:58:02.662Z,31.60
2019-01-11T23:01:10.633Z,32.83
2019-01-11T23:03:51.606Z,30.90
2019-01-11T23:07:05.010Z,31.50
2019-01-11T23:09:55.122Z,32.30
2019-01-11T23:12:46.431Z,28.43
2019-01-11T23:15:34.895Z,31.43
2019-01-11T23:18:15.455Z,31.37
2019-01-11T23:20:46.933Z,32.37
2019-01-11T23:23:17.357Z,30.77
2019-01-11T23:25:47.174Z,33.77
2019-01-11T23:28:17.607Z,30.83
2019-01-11T23:30:48.032Z,36.43
2019-01-11T23:33:18.395Z,32.27
2019-01-11T23:35:48.738Z,32.33
2019-01-11T23:38:19.159Z,29.70
2019-01-11T23:40:48.933Z,34.23
2019-01-11T23:43:19.273Z,33.30
2019-01-11T23:45:49.757Z,32.57
2019-01-11T23:48:20.107Z,34.60
2019-01-11T23:50:50.359Z,27.57
2019-01-11T23:53:20.760Z,37.20
2019-01-11T23:55:51.103Z,32.77
2019-01-11T23:58:20.859Z,35.47
